CheckWX is a tool to help pilots better visualize weather data.  It is not intended as a substitute for an official pre-flight weather briefing.

03:21:19 UTC

KRID METAR
Richmond Municipal Airport
Richmond, Indiana, USA
Current

26 mins ago

KRID 230255Z AUTO 21005KT 10SM CLR 20/16 A2999 RMK AO2
Observed
Sep-23 @ 02:55 UTC
Wind
  • 210° at 5 KTS
Visibility
10 SM
Flight Rules
VFR
Cloud Levels
  • Clear skies
Temperature
20°C / 68°F
Dewpoint
16°C / 61°F
Humidity
78%
Altimeter
29.99" Hg
Pressure
1015.62 hPa
Previous

46 mins ago

KRID 230235Z AUTO 20006KT 10SM CLR 20/16 A2999 RMK AO2
Observed
Sep-23 @ 02:35 UTC
Wind
  • 200° at 6 KTS
Visibility
10 SM
Flight Rules
VFR
Cloud Levels
  • Clear skies
Temperature
20°C / 68°F
Dewpoint
16°C / 61°F
Humidity
78%
Altimeter
29.99" Hg
Pressure
1015.62 hPa
Previous

1 hour ago

KRID 230215Z AUTO 20006KT 10SM CLR 20/16 A2999 RMK AO2
Observed
Sep-23 @ 02:15 UTC
Wind
  • 200° at 6 KTS
Visibility
10 SM
Flight Rules
VFR
Cloud Levels
  • Clear skies
Temperature
20°C / 68°F
Dewpoint
16°C / 61°F
Humidity
78%
Altimeter
29.99" Hg
Pressure
1015.62 hPa